sensor_id;sensor_type;location;lat;lon;timestamp;P1;durP1;ratioP1;P2;durP2;ratioP2
69305;SDS011;56427;51.580;4.656;2022-10-22T00:01:22;13.00;;;4.77;;
69305;SDS011;56427;51.580;4.656;2022-10-22T00:03:48;11.20;;;4.50;;
69305;SDS011;56427;51.580;4.656;2022-10-22T00:06:13;11.20;;;4.70;;
69305;SDS011;56427;51.580;4.656;2022-10-22T00:08:39;15.50;;;5.10;;
69305;SDS011;56427;51.580;4.656;2022-10-22T00:11:14;8.90;;;4.47;;
69305;SDS011;56427;51.580;4.656;2022-10-22T00:13:41;16.83;;;4.95;;
69305;SDS011;56427;51.580;4.656;2022-10-22T00:16:07;14.73;;;4.63;;
69305;SDS011;56427;51.580;4.656;2022-10-22T00:18:33;19.05;;;4.70;;
69305;SDS011;56427;51.580;4.656;2022-10-22T00:20:59;12.73;;;4.80;;
69305;SDS011;56427;51.580;4.656;2022-10-22T00:23:25;14.27;;;4.83;;
69305;SDS011;56427;51.580;4.656;2022-10-22T00:25:51;11.13;;;4.80;;
69305;SDS011;56427;51.580;4.656;2022-10-22T00:28:17;11.23;;;5.15;;
69305;SDS011;56427;51.580;4.656;2022-10-22T00:30:42;11.80;;;4.70;;
69305;SDS011;56427;51.580;4.656;2022-10-22T00:33:07;10.07;;;4.93;;
69305;SDS011;56427;51.580;4.656;2022-10-22T00:35:33;9.00;;;4.70;;
69305;SDS011;56427;51.580;4.656;2022-10-22T00:37:58;12.70;;;4.63;;
69305;SDS011;56427;51.580;4.656;2022-10-22T00:40:23;12.33;;;4.87;;
69305;SDS011;56427;51.580;4.656;2022-10-22T00:42:48;11.67;;;4.90;;
69305;SDS011;56427;51.580;4.656;2022-10-22T00:45:15;11.77;;;5.20;;
69305;SDS011;56427;51.580;4.656;2022-10-22T00:47:45;11.65;;;4.53;;
69305;SDS011;56427;51.580;4.656;2022-10-22T00:52:59;9.43;;;4.30;;
69305;SDS011;56427;51.580;4.656;2022-10-22T00:55:27;8.75;;;4.15;;
69305;SDS011;56427;51.580;4.656;2022-10-22T00:57:53;16.75;;;4.80;;
69305;SDS011;56427;51.580;4.656;2022-10-22T01:00:20;10.40;;;4.25;;
69305;SDS011;56427;51.580;4.656;2022-10-22T01:02:46;13.20;;;4.00;;
69305;SDS011;56427;51.580;4.656;2022-10-22T01:05:13;14.18;;;3.83;;
69305;SDS011;56427;51.580;4.656;2022-10-22T01:07:44;8.23;;;3.87;;
69305;SDS011;56427;51.580;4.656;2022-10-22T01:10:18;16.08;;;4.28;;
69305;SDS011;56427;51.580;4.656;2022-10-22T01:12:50;13.73;;;3.95;;
69305;SDS011;56427;51.580;4.656;2022-10-22T01:15:33;12.27;;;3.60;;
69305;SDS011;56427;51.580;4.656;2022-10-22T01:31:27;9.30;;;3.70;;
69305;SDS011;56427;51.580;4.656;2022-10-22T01:33:56;11.43;;;3.65;;
69305;SDS011;56427;51.580;4.656;2022-10-22T01:36:24;12.80;;;3.28;;
69305;SDS011;56427;51.580;4.656;2022-10-22T01:38:51;15.50;;;3.55;;
69305;SDS011;56427;51.580;4.656;2022-10-22T01:41:18;9.30;;;3.45;;
69305;SDS011;56427;51.580;4.656;2022-10-22T01:43:43;11.77;;;3.33;;
69305;SDS011;56427;51.580;4.656;2022-10-22T01:46:09;12.57;;;3.07;;
69305;SDS011;56427;51.580;4.656;2022-10-22T01:51:55;9.10;;;3.03;;
69305;SDS011;56427;51.580;4.656;2022-10-22T01:57:16;9.88;;;3.10;;
69305;SDS011;56427;51.580;4.656;2022-10-22T02:08:08;8.88;;;3.60;;
69305;SDS011;56427;51.580;4.656;2022-10-22T02:10:36;12.48;;;3.80;;
69305;SDS011;56427;51.580;4.656;2022-10-22T02:13:03;11.30;;;2.95;;
69305;SDS011;56427;51.580;4.656;2022-10-22T02:15:32;12.70;;;3.90;;
69305;SDS011;56427;51.580;4.656;2022-10-22T02:17:59;9.90;;;3.10;;
69305;SDS011;56427;51.580;4.656;2022-10-22T02:20:29;13.90;;;3.95;;
69305;SDS011;56427;51.580;4.656;2022-10-22T02:22:57;7.82;;;2.85;;
69305;SDS011;56427;51.580;4.656;2022-10-22T02:25:25;12.55;;;3.55;;
69305;SDS011;56427;51.580;4.656;2022-10-22T02:30:52;9.13;;;2.83;;
69305;SDS011;56427;51.580;4.656;2022-10-22T02:33:25;11.77;;;3.45;;
69305;SDS011;56427;51.580;4.656;2022-10-22T02:35:54;8.07;;;3.08;;
69305;SDS011;56427;51.580;4.656;2022-10-22T02:38:19;8.82;;;3.00;;
69305;SDS011;56427;51.580;4.656;2022-10-22T02:40:47;10.57;;;2.90;;
69305;SDS011;56427;51.580;4.656;2022-10-22T02:43:13;9.23;;;3.10;;
69305;SDS011;56427;51.580;4.656;2022-10-22T02:45:38;12.77;;;2.87;;
69305;SDS011;56427;51.580;4.656;2022-10-22T02:48:04;10.23;;;2.90;;
69305;SDS011;56427;51.580;4.656;2022-10-22T02:50:29;9.93;;;3.20;;
69305;SDS011;56427;51.580;4.656;2022-10-22T02:52:55;9.83;;;3.13;;
69305;SDS011;56427;51.580;4.656;2022-10-22T02:55:20;12.43;;;3.13;;
69305;SDS011;56427;51.580;4.656;2022-10-22T02:57:45;9.03;;;2.90;;
69305;SDS011;56427;51.580;4.656;2022-10-22T03:00:11;7.53;;;2.67;;
69305;SDS011;56427;51.580;4.656;2022-10-22T03:02:37;13.40;;;2.92;;
69305;SDS011;56427;51.580;4.656;2022-10-22T03:05:02;13.17;;;3.27;;
69305;SDS011;56427;51.580;4.656;2022-10-22T03:07:28;12.93;;;3.63;;
69305;SDS011;56427;51.580;4.656;2022-10-22T03:09:54;18.07;;;3.60;;
69305;SDS011;56427;51.580;4.656;2022-10-22T03:12:19;10.67;;;3.07;;
69305;SDS011;56427;51.580;4.656;2022-10-22T03:14:44;11.40;;;3.17;;
69305;SDS011;56427;51.580;4.656;2022-10-22T03:17:09;9.00;;;2.87;;
69305;SDS011;56427;51.580;4.656;2022-10-22T03:19:35;12.07;;;3.40;;
69305;SDS011;56427;51.580;4.656;2022-10-22T03:22:01;13.77;;;3.47;;
69305;SDS011;56427;51.580;4.656;2022-10-22T03:24:35;17.55;;;3.80;;
69305;SDS011;56427;51.580;4.656;2022-10-22T03:27:02;10.18;;;3.13;;
69305;SDS011;56427;51.580;4.656;2022-10-22T03:29:28;14.73;;;3.07;;
69305;SDS011;56427;51.580;4.656;2022-10-22T03:31:57;10.07;;;3.10;;
69305;SDS011;56427;51.580;4.656;2022-10-22T03:34:22;13.93;;;3.45;;
69305;SDS011;56427;51.580;4.656;2022-10-22T03:36:47;11.03;;;3.30;;
69305;SDS011;56427;51.580;4.656;2022-10-22T03:39:13;10.27;;;3.00;;
69305;SDS011;56427;51.580;4.656;2022-10-22T03:41:42;12.65;;;3.53;;
69305;SDS011;56427;51.580;4.656;2022-10-22T03:44:08;8.45;;;2.90;;
69305;SDS011;56427;51.580;4.656;2022-10-22T03:46:34;10.98;;;3.17;;
69305;SDS011;56427;51.580;4.656;2022-10-22T03:48:59;11.87;;;3.60;;
69305;SDS011;56427;51.580;4.656;2022-10-22T03:51:25;14.77;;;3.73;;
69305;SDS011;56427;51.580;4.656;2022-10-22T03:53:52;12.07;;;3.58;;
69305;SDS011;56427;51.580;4.656;2022-10-22T03:56:17;14.67;;;3.70;;
69305;SDS011;56427;51.580;4.656;2022-10-22T03:58:43;13.23;;;3.43;;
69305;SDS011;56427;51.580;4.656;2022-10-22T04:01:09;12.27;;;3.20;;
69305;SDS011;56427;51.580;4.656;2022-10-22T04:03:36;12.85;;;3.50;;
69305;SDS011;56427;51.580;4.656;2022-10-22T04:06:08;14.13;;;3.50;;
69305;SDS011;56427;51.580;4.656;2022-10-22T04:08:37;10.95;;;3.08;;
69305;SDS011;56427;51.580;4.656;2022-10-22T04:11:03;9.98;;;3.20;;
69305;SDS011;56427;51.580;4.656;2022-10-22T04:13:29;9.93;;;3.67;;
69305;SDS011;56427;51.580;4.656;2022-10-22T04:15:54;20.57;;;3.37;;
69305;SDS011;56427;51.580;4.656;2022-10-22T04:18:20;11.20;;;3.10;;
69305;SDS011;56427;51.580;4.656;2022-10-22T04:20:47;9.30;;;2.83;;
69305;SDS011;56427;51.580;4.656;2022-10-22T04:23:12;11.73;;;3.43;;
69305;SDS011;56427;51.580;4.656;2022-10-22T04:25:38;8.55;;;2.88;;
69305;SDS011;56427;51.580;4.656;2022-10-22T04:28:07;11.00;;;3.38;;
69305;SDS011;56427;51.580;4.656;2022-10-22T04:30:34;11.52;;;3.05;;
69305;SDS011;56427;51.580;4.656;2022-10-22T04:33:00;14.80;;;3.17;;
69305;SDS011;56427;51.580;4.656;2022-10-22T04:35:26;9.65;;;3.10;;
69305;SDS011;56427;51.580;4.656;2022-10-22T04:37:51;16.07;;;3.10;;
69305;SDS011;56427;51.580;4.656;2022-10-22T04:40:16;12.67;;;2.93;;
69305;SDS011;56427;51.580;4.656;2022-10-22T04:42:42;58.67;;;4.27;;
69305;SDS011;56427;51.580;4.656;2022-10-22T04:45:07;9.27;;;2.97;;
69305;SDS011;56427;51.580;4.656;2022-10-22T04:47:33;10.57;;;3.08;;
69305;SDS011;56427;51.580;4.656;2022-10-22T04:49:58;9.53;;;2.87;;
69305;SDS011;56427;51.580;4.656;2022-10-22T04:52:23;7.43;;;2.50;;
69305;SDS011;56427;51.580;4.656;2022-10-22T04:54:49;13.27;;;3.07;;
69305;SDS011;56427;51.580;4.656;2022-10-22T04:57:14;10.30;;;2.80;;
69305;SDS011;56427;51.580;4.656;2022-10-22T04:59:39;9.83;;;2.67;;
69305;SDS011;56427;51.580;4.656;2022-10-22T05:02:04;10.80;;;2.70;;
69305;SDS011;56427;51.580;4.656;2022-10-22T05:04:30;13.17;;;2.97;;
69305;SDS011;56427;51.580;4.656;2022-10-22T05:06:55;9.87;;;2.67;;
69305;SDS011;56427;51.580;4.656;2022-10-22T05:09:21;12.90;;;2.57;;
69305;SDS011;56427;51.580;4.656;2022-10-22T05:11:47;9.17;;;2.43;;
69305;SDS011;56427;51.580;4.656;2022-10-22T05:14:18;9.20;;;2.58;;
69305;SDS011;56427;51.580;4.656;2022-10-22T05:16:45;9.85;;;2.33;;
69305;SDS011;56427;51.580;4.656;2022-10-22T05:19:45;14.10;;;3.50;;
69305;SDS011;56427;51.580;4.656;2022-10-22T05:22:03;12.80;;;2.20;;
69305;SDS011;56427;51.580;4.656;2022-10-22T05:24:29;13.48;;;2.75;;
69305;SDS011;56427;51.580;4.656;2022-10-22T05:26:57;10.10;;;2.83;;
69305;SDS011;56427;51.580;4.656;2022-10-22T05:29:23;9.93;;;2.40;;
69305;SDS011;56427;51.580;4.656;2022-10-22T05:31:49;11.30;;;2.63;;
69305;SDS011;56427;51.580;4.656;2022-10-22T05:34:14;13.43;;;2.80;;
69305;SDS011;56427;51.580;4.656;2022-10-22T05:36:40;10.23;;;2.50;;
69305;SDS011;56427;51.580;4.656;2022-10-22T05:39:06;11.13;;;2.45;;
69305;SDS011;56427;51.580;4.656;2022-10-22T05:41:32;8.67;;;2.50;;
69305;SDS011;56427;51.580;4.656;2022-10-22T05:43:58;11.68;;;2.70;;
69305;SDS011;56427;51.580;4.656;2022-10-22T05:46:25;14.55;;;2.83;;
69305;SDS011;56427;51.580;4.656;2022-10-22T05:48:54;8.23;;;2.30;;
69305;SDS011;56427;51.580;4.656;2022-10-22T05:51:21;10.20;;;2.90;;
69305;SDS011;56427;51.580;4.656;2022-10-22T05:53:52;15.88;;;3.28;;
69305;SDS011;56427;51.580;4.656;2022-10-22T05:56:20;17.58;;;2.88;;
69305;SDS011;56427;51.580;4.656;2022-10-22T05:58:46;12.55;;;3.00;;
69305;SDS011;56427;51.580;4.656;2022-10-22T06:01:12;13.80;;;2.93;;
69305;SDS011;56427;51.580;4.656;2022-10-22T06:03:43;8.50;;;2.90;;
69305;SDS011;56427;51.580;4.656;2022-10-22T06:06:19;10.65;;;2.50;;
69305;SDS011;56427;51.580;4.656;2022-10-22T06:08:47;14.45;;;3.17;;
69305;SDS011;56427;51.580;4.656;2022-10-22T06:11:14;14.17;;;2.70;;
69305;SDS011;56427;51.580;4.656;2022-10-22T06:13:42;11.52;;;3.00;;
69305;SDS011;56427;51.580;4.656;2022-10-22T06:16:07;13.00;;;2.75;;
69305;SDS011;56427;51.580;4.656;2022-10-22T06:18:33;12.33;;;2.70;;
69305;SDS011;56427;51.580;4.656;2022-10-22T06:21:05;15.10;;;3.03;;
69305;SDS011;56427;51.580;4.656;2022-10-22T06:23:32;10.47;;;2.67;;
69305;SDS011;56427;51.580;4.656;2022-10-22T06:25:58;13.98;;;3.50;;
69305;SDS011;56427;51.580;4.656;2022-10-22T06:28:24;12.25;;;2.47;;
69305;SDS011;56427;51.580;4.656;2022-10-22T06:30:50;7.95;;;2.30;;
69305;SDS011;56427;51.580;4.656;2022-10-22T06:33:15;12.20;;;2.63;;
69305;SDS011;56427;51.580;4.656;2022-10-22T06:35:40;10.50;;;2.80;;
69305;SDS011;56427;51.580;4.656;2022-10-22T06:38:06;11.17;;;2.47;;
69305;SDS011;56427;51.580;4.656;2022-10-22T06:40:31;9.57;;;2.83;;
69305;SDS011;56427;51.580;4.656;2022-10-22T06:43:00;9.45;;;3.00;;
69305;SDS011;56427;51.580;4.656;2022-10-22T06:45:26;9.70;;;2.28;;
69305;SDS011;56427;51.580;4.656;2022-10-22T06:47:51;10.87;;;2.20;;
69305;SDS011;56427;51.580;4.656;2022-10-22T06:50:17;14.93;;;2.80;;
69305;SDS011;56427;51.580;4.656;2022-10-22T06:52:43;15.20;;;3.07;;
69305;SDS011;56427;51.580;4.656;2022-10-22T06:55:08;9.57;;;2.40;;
69305;SDS011;56427;51.580;4.656;2022-10-22T06:57:34;12.95;;;2.30;;
69305;SDS011;56427;51.580;4.656;2022-10-22T06:59:59;13.13;;;2.40;;
69305;SDS011;56427;51.580;4.656;2022-10-22T07:02:25;12.67;;;2.10;;
69305;SDS011;56427;51.580;4.656;2022-10-22T07:04:50;11.53;;;2.37;;
69305;SDS011;56427;51.580;4.656;2022-10-22T07:07:15;15.43;;;2.40;;
69305;SDS011;56427;51.580;4.656;2022-10-22T07:09:40;13.37;;;2.40;;
69305;SDS011;56427;51.580;4.656;2022-10-22T07:12:09;11.67;;;2.13;;
69305;SDS011;56427;51.580;4.656;2022-10-22T07:14:34;13.07;;;2.93;;
69305;SDS011;56427;51.580;4.656;2022-10-22T07:16:59;15.67;;;2.40;;
69305;SDS011;56427;51.580;4.656;2022-10-22T07:19:25;10.63;;;2.00;;
69305;SDS011;56427;51.580;4.656;2022-10-22T07:21:50;5.90;;;1.80;;
69305;SDS011;56427;51.580;4.656;2022-10-22T07:24:15;13.17;;;2.20;;
69305;SDS011;56427;51.580;4.656;2022-10-22T07:26:41;17.10;;;2.37;;
69305;SDS011;56427;51.580;4.656;2022-10-22T07:29:06;11.13;;;2.00;;
69305;SDS011;56427;51.580;4.656;2022-10-22T07:31:31;10.73;;;1.93;;
69305;SDS011;56427;51.580;4.656;2022-10-22T07:33:57;9.67;;;2.40;;
69305;SDS011;56427;51.580;4.656;2022-10-22T07:36:22;11.85;;;2.78;;
69305;SDS011;56427;51.580;4.656;2022-10-22T07:38:48;14.03;;;2.27;;
69305;SDS011;56427;51.580;4.656;2022-10-22T07:41:17;8.13;;;1.88;;
69305;SDS011;56427;51.580;4.656;2022-10-22T07:43:42;13.87;;;2.13;;
69305;SDS011;56427;51.580;4.656;2022-10-22T07:46:08;13.30;;;2.77;;
69305;SDS011;56427;51.580;4.656;2022-10-22T07:48:34;8.33;;;2.00;;
69305;SDS011;56427;51.580;4.656;2022-10-22T07:51:00;10.45;;;2.05;;
69305;SDS011;56427;51.580;4.656;2022-10-22T07:53:26;9.52;;;2.38;;
69305;SDS011;56427;51.580;4.656;2022-10-22T07:55:52;9.83;;;1.73;;
69305;SDS011;56427;51.580;4.656;2022-10-22T07:58:19;13.15;;;2.40;;
69305;SDS011;56427;51.580;4.656;2022-10-22T08:00:45;12.45;;;2.30;;
69305;SDS011;56427;51.580;4.656;2022-10-22T08:03:11;9.07;;;1.90;;
69305;SDS011;56427;51.580;4.656;2022-10-22T08:05:38;9.50;;;1.83;;
69305;SDS011;56427;51.580;4.656;2022-10-22T08:08:04;9.77;;;2.00;;
69305;SDS011;56427;51.580;4.656;2022-10-22T08:10:30;7.93;;;2.13;;
69305;SDS011;56427;51.580;4.656;2022-10-22T08:12:56;12.43;;;1.98;;
69305;SDS011;56427;51.580;4.656;2022-10-22T08:15:22;10.50;;;2.25;;
69305;SDS011;56427;51.580;4.656;2022-10-22T08:17:49;10.40;;;1.92;;
69305;SDS011;56427;51.580;4.656;2022-10-22T08:20:15;11.77;;;2.17;;
69305;SDS011;56427;51.580;4.656;2022-10-22T08:22:40;10.57;;;1.87;;
69305;SDS011;56427;51.580;4.656;2022-10-22T08:25:05;9.53;;;1.93;;
69305;SDS011;56427;51.580;4.656;2022-10-22T08:27:31;9.80;;;2.22;;
69305;SDS011;56427;51.580;4.656;2022-10-22T08:29:56;9.93;;;2.00;;
69305;SDS011;56427;51.580;4.656;2022-10-22T08:32:22;14.67;;;2.07;;
69305;SDS011;56427;51.580;4.656;2022-10-22T08:34:47;11.20;;;2.10;;
69305;SDS011;56427;51.580;4.656;2022-10-22T08:37:12;11.77;;;2.37;;
69305;SDS011;56427;51.580;4.656;2022-10-22T08:39:38;12.23;;;2.58;;
69305;SDS011;56427;51.580;4.656;2022-10-22T08:42:11;11.88;;;2.30;;
69305;SDS011;56427;51.580;4.656;2022-10-22T08:50:11;10.23;;;1.95;;
69305;SDS011;56427;51.580;4.656;2022-10-22T08:52:43;10.13;;;1.88;;
69305;SDS011;56427;51.580;4.656;2022-10-22T08:55:14;8.93;;;1.90;;
69305;SDS011;56427;51.580;4.656;2022-10-22T08:57:51;15.13;;;2.77;;
69305;SDS011;56427;51.580;4.656;2022-10-22T09:00:36;9.93;;;1.70;;
69305;SDS011;56427;51.580;4.656;2022-10-22T09:08:45;8.98;;;2.17;;
69305;SDS011;56427;51.580;4.656;2022-10-22T09:13:36;11.57;;;2.13;;
69305;SDS011;56427;51.580;4.656;2022-10-22T09:21:28;10.65;;;1.75;;
69305;SDS011;56427;51.580;4.656;2022-10-22T09:27:11;11.07;;;2.33;;
69305;SDS011;56427;51.580;4.656;2022-10-22T09:29:36;10.02;;;1.80;;
69305;SDS011;56427;51.580;4.656;2022-10-22T09:32:02;9.83;;;2.03;;
69305;SDS011;56427;51.580;4.656;2022-10-22T09:34:28;11.02;;;2.42;;
69305;SDS011;56427;51.580;4.656;2022-10-22T09:37:00;13.13;;;2.20;;
69305;SDS011;56427;51.580;4.656;2022-10-22T09:39:40;14.90;;;2.38;;
69305;SDS011;56427;51.580;4.656;2022-10-22T09:42:09;14.10;;;2.40;;
69305;SDS011;56427;51.580;4.656;2022-10-22T09:44:38;12.57;;;2.25;;
69305;SDS011;56427;51.580;4.656;2022-10-22T09:47:04;11.80;;;1.87;;
69305;SDS011;56427;51.580;4.656;2022-10-22T09:49:32;11.68;;;2.08;;
69305;SDS011;56427;51.580;4.656;2022-10-22T09:51:59;9.43;;;2.25;;
69305;SDS011;56427;51.580;4.656;2022-10-22T09:54:28;15.90;;;2.53;;
69305;SDS011;56427;51.580;4.656;2022-10-22T09:57:13;13.57;;;2.60;;
69305;SDS011;56427;51.580;4.656;2022-10-22T09:59:46;12.95;;;2.53;;
69305;SDS011;56427;51.580;4.656;2022-10-22T10:02:14;14.65;;;2.78;;
69305;SDS011;56427;51.580;4.656;2022-10-22T10:05:16;10.02;;;3.38;;
69305;SDS011;56427;51.580;4.656;2022-10-22T10:07:42;12.27;;;2.70;;
69305;SDS011;56427;51.580;4.656;2022-10-22T10:10:16;19.53;;;2.83;;
69305;SDS011;56427;51.580;4.656;2022-10-22T10:12:53;12.52;;;2.30;;
69305;SDS011;56427;51.580;4.656;2022-10-22T10:15:28;10.80;;;2.15;;
69305;SDS011;56427;51.580;4.656;2022-10-22T10:26:03;13.60;;;2.45;;
69305;SDS011;56427;51.580;4.656;2022-10-22T10:34:03;15.25;;;3.60;;
69305;SDS011;56427;51.580;4.656;2022-10-22T10:39:23;13.32;;;3.22;;
69305;SDS011;56427;51.580;4.656;2022-10-22T10:50:25;12.40;;;2.60;;
69305;SDS011;56427;51.580;4.656;2022-10-22T10:52:56;17.77;;;3.38;;
69305;SDS011;56427;51.580;4.656;2022-10-22T10:55:39;14.05;;;2.50;;
69305;SDS011;56427;51.580;4.656;2022-10-22T11:00:56;15.88;;;3.58;;
69305;SDS011;56427;51.580;4.656;2022-10-22T11:03:38;9.73;;;2.83;;
69305;SDS011;56427;51.580;4.656;2022-10-22T11:06:19;12.82;;;2.88;;
69305;SDS011;56427;51.580;4.656;2022-10-22T11:08:46;14.63;;;2.97;;
69305;SDS011;56427;51.580;4.656;2022-10-22T11:14:20;14.60;;;3.00;;
69305;SDS011;56427;51.580;4.656;2022-10-22T11:21:56;12.25;;;2.25;;
69305;SDS011;56427;51.580;4.656;2022-10-22T11:29:42;13.30;;;2.10;;
69305;SDS011;56427;51.580;4.656;2022-10-22T11:32:19;16.45;;;2.40;;
69305;SDS011;56427;51.580;4.656;2022-10-22T11:34:48;18.80;;;2.53;;
69305;SDS011;56427;51.580;4.656;2022-10-22T11:37:18;10.90;;;2.17;;
69305;SDS011;56427;51.580;4.656;2022-10-22T11:39:58;15.95;;;2.60;;
69305;SDS011;56427;51.580;4.656;2022-10-22T11:42:31;15.85;;;2.45;;
69305;SDS011;56427;51.580;4.656;2022-10-22T11:45:01;13.18;;;2.20;;
69305;SDS011;56427;51.580;4.656;2022-10-22T11:50:27;14.47;;;2.47;;
69305;SDS011;56427;51.580;4.656;2022-10-22T12:00:52;16.35;;;2.80;;
69305;SDS011;56427;51.580;4.656;2022-10-22T12:03:24;11.13;;;2.53;;
69305;SDS011;56427;51.580;4.656;2022-10-22T12:06:15;15.30;;;2.60;;
69305;SDS011;56427;51.580;4.656;2022-10-22T12:08:45;13.70;;;2.70;;
69305;SDS011;56427;51.580;4.656;2022-10-22T12:16:34;11.55;;;2.92;;
69305;SDS011;56427;51.580;4.656;2022-10-22T12:19:11;10.23;;;2.33;;
69305;SDS011;56427;51.580;4.656;2022-10-22T12:21:44;16.42;;;2.50;;
69305;SDS011;56427;51.580;4.656;2022-10-22T12:24:14;10.35;;;2.55;;
69305;SDS011;56427;51.580;4.656;2022-10-22T12:26:41;14.32;;;2.42;;
69305;SDS011;56427;51.580;4.656;2022-10-22T12:29:11;8.85;;;2.20;;
69305;SDS011;56427;51.580;4.656;2022-10-22T12:31:39;13.47;;;2.30;;
69305;SDS011;56427;51.580;4.656;2022-10-22T12:34:05;18.05;;;2.47;;
69305;SDS011;56427;51.580;4.656;2022-10-22T12:36:34;12.13;;;2.90;;
69305;SDS011;56427;51.580;4.656;2022-10-22T12:39:08;9.98;;;2.50;;
69305;SDS011;56427;51.580;4.656;2022-10-22T12:41:37;11.27;;;2.30;;
69305;SDS011;56427;51.580;4.656;2022-10-22T12:44:04;13.60;;;1.88;;
69305;SDS011;56427;51.580;4.656;2022-10-22T12:46:31;10.95;;;2.67;;
69305;SDS011;56427;51.580;4.656;2022-10-22T12:48:58;8.87;;;1.93;;
69305;SDS011;56427;51.580;4.656;2022-10-22T12:51:25;9.73;;;2.00;;
69305;SDS011;56427;51.580;4.656;2022-10-22T12:53:52;9.27;;;2.10;;
69305;SDS011;56427;51.580;4.656;2022-10-22T12:56:21;12.23;;;1.90;;
69305;SDS011;56427;51.580;4.656;2022-10-22T12:58:56;13.57;;;2.53;;
69305;SDS011;56427;51.580;4.656;2022-10-22T13:01:28;9.50;;;2.70;;
69305;SDS011;56427;51.580;4.656;2022-10-22T13:04:33;10.07;;;2.40;;
69305;SDS011;56427;51.580;4.656;2022-10-22T13:06:51;10.35;;;2.05;;
69305;SDS011;56427;51.580;4.656;2022-10-22T13:12:25;10.38;;;2.30;;
69305;SDS011;56427;51.580;4.656;2022-10-22T13:14:52;14.33;;;2.23;;
69305;SDS011;56427;51.580;4.656;2022-10-22T13:17:40;7.18;;;2.40;;
69305;SDS011;56427;51.580;4.656;2022-10-22T13:22:59;9.47;;;2.23;;
69305;SDS011;56427;51.580;4.656;2022-10-22T13:25:28;12.07;;;2.28;;
69305;SDS011;56427;51.580;4.656;2022-10-22T13:28:39;11.98;;;2.40;;
69305;SDS011;56427;51.580;4.656;2022-10-22T13:30:53;11.88;;;2.25;;
69305;SDS011;56427;51.580;4.656;2022-10-22T13:33:24;12.07;;;2.47;;
69305;SDS011;56427;51.580;4.656;2022-10-22T13:35:54;12.63;;;2.30;;
69305;SDS011;56427;51.580;4.656;2022-10-22T13:38:21;11.77;;;2.20;;
69305;SDS011;56427;51.580;4.656;2022-10-22T13:40:48;10.10;;;2.85;;
69305;SDS011;56427;51.580;4.656;2022-10-22T13:43:14;9.07;;;2.60;;
69305;SDS011;56427;51.580;4.656;2022-10-22T13:45:40;13.23;;;3.13;;
69305;SDS011;56427;51.580;4.656;2022-10-22T13:48:07;9.50;;;2.53;;
69305;SDS011;56427;51.580;4.656;2022-10-22T13:50:37;12.15;;;2.55;;
69305;SDS011;56427;51.580;4.656;2022-10-22T13:53:02;10.07;;;2.77;;
69305;SDS011;56427;51.580;4.656;2022-10-22T13:55:29;11.18;;;2.72;;
69305;SDS011;56427;51.580;4.656;2022-10-22T13:58:14;10.27;;;2.33;;
69305;SDS011;56427;51.580;4.656;2022-10-22T14:00:44;12.40;;;2.50;;
69305;SDS011;56427;51.580;4.656;2022-10-22T14:03:12;9.07;;;2.75;;
69305;SDS011;56427;51.580;4.656;2022-10-22T14:05:40;9.03;;;2.77;;
69305;SDS011;56427;51.580;4.656;2022-10-22T14:08:10;12.13;;;2.30;;
69305;SDS011;56427;51.580;4.656;2022-10-22T14:10:37;12.02;;;2.33;;
69305;SDS011;56427;51.580;4.656;2022-10-22T14:13:05;11.83;;;2.47;;
69305;SDS011;56427;51.580;4.656;2022-10-22T14:15:40;9.43;;;2.00;;
69305;SDS011;56427;51.580;4.656;2022-10-22T14:18:06;7.72;;;1.88;;
69305;SDS011;56427;51.580;4.656;2022-10-22T14:20:34;9.43;;;2.13;;
69305;SDS011;56427;51.580;4.656;2022-10-22T14:23:06;9.02;;;2.15;;
69305;SDS011;56427;51.580;4.656;2022-10-22T14:25:37;12.35;;;1.98;;
69305;SDS011;56427;51.580;4.656;2022-10-22T14:28:02;12.77;;;2.97;;
69305;SDS011;56427;51.580;4.656;2022-10-22T14:30:28;10.17;;;2.27;;
69305;SDS011;56427;51.580;4.656;2022-10-22T14:32:54;7.72;;;2.00;;
69305;SDS011;56427;51.580;4.656;2022-10-22T14:35:21;10.15;;;1.80;;
69305;SDS011;56427;51.580;4.656;2022-10-22T14:37:47;10.27;;;1.97;;
69305;SDS011;56427;51.580;4.656;2022-10-22T14:40:13;14.90;;;2.10;;
69305;SDS011;56427;51.580;4.656;2022-10-22T14:42:42;9.35;;;1.67;;
69305;SDS011;56427;51.580;4.656;2022-10-22T14:45:13;10.35;;;1.70;;
69305;SDS011;56427;51.580;4.656;2022-10-22T14:47:42;8.85;;;1.60;;
69305;SDS011;56427;51.580;4.656;2022-10-22T14:50:07;11.63;;;2.23;;
69305;SDS011;56427;51.580;4.656;2022-10-22T14:52:33;8.43;;;1.52;;
69305;SDS011;56427;51.580;4.656;2022-10-22T14:54:58;10.43;;;1.77;;
69305;SDS011;56427;51.580;4.656;2022-10-22T14:57:24;9.63;;;1.87;;
69305;SDS011;56427;51.580;4.656;2022-10-22T14:59:49;6.87;;;1.77;;
69305;SDS011;56427;51.580;4.656;2022-10-22T15:02:18;10.73;;;2.15;;
69305;SDS011;56427;51.580;4.656;2022-10-22T15:04:44;5.57;;;1.70;;
69305;SDS011;56427;51.580;4.656;2022-10-22T15:07:09;8.53;;;1.80;;
69305;SDS011;56427;51.580;4.656;2022-10-22T15:09:34;9.67;;;1.90;;
69305;SDS011;56427;51.580;4.656;2022-10-22T15:11:59;7.80;;;1.80;;
69305;SDS011;56427;51.580;4.656;2022-10-22T15:14:25;10.63;;;1.93;;
69305;SDS011;56427;51.580;4.656;2022-10-22T15:16:50;9.73;;;2.23;;
69305;SDS011;56427;51.580;4.656;2022-10-22T15:19:15;9.50;;;2.00;;
69305;SDS011;56427;51.580;4.656;2022-10-22T15:21:40;9.10;;;1.93;;
69305;SDS011;56427;51.580;4.656;2022-10-22T15:24:06;10.40;;;1.90;;
69305;SDS011;56427;51.580;4.656;2022-10-22T15:26:31;10.97;;;1.87;;
69305;SDS011;56427;51.580;4.656;2022-10-22T15:28:56;8.80;;;1.70;;
69305;SDS011;56427;51.580;4.656;2022-10-22T15:34:21;12.40;;;2.00;;
69305;SDS011;56427;51.580;4.656;2022-10-22T15:36:48;10.77;;;2.40;;
69305;SDS011;56427;51.580;4.656;2022-10-22T15:39:15;10.75;;;2.00;;
69305;SDS011;56427;51.580;4.656;2022-10-22T15:41:40;10.02;;;2.13;;
69305;SDS011;56427;51.580;4.656;2022-10-22T15:44:06;9.23;;;2.07;;
69305;SDS011;56427;51.580;4.656;2022-10-22T15:46:32;10.80;;;2.33;;
69305;SDS011;56427;51.580;4.656;2022-10-22T15:48:58;10.30;;;2.30;;
69305;SDS011;56427;51.580;4.656;2022-10-22T15:51:23;11.67;;;2.83;;
69305;SDS011;56427;51.580;4.656;2022-10-22T15:53:53;13.80;;;2.53;;
69305;SDS011;56427;51.580;4.656;2022-10-22T15:56:20;10.97;;;2.40;;
69305;SDS011;56427;51.580;4.656;2022-10-22T15:58:45;10.18;;;2.25;;
69305;SDS011;56427;51.580;4.656;2022-10-22T16:01:11;8.73;;;2.00;;
69305;SDS011;56427;51.580;4.656;2022-10-22T16:03:38;14.40;;;2.58;;
69305;SDS011;56427;51.580;4.656;2022-10-22T16:06:05;6.88;;;2.20;;
69305;SDS011;56427;51.580;4.656;2022-10-22T16:08:31;8.70;;;2.00;;
69305;SDS011;56427;51.580;4.656;2022-10-22T16:10:57;11.23;;;2.67;;
69305;SDS011;56427;51.580;4.656;2022-10-22T16:13:22;7.13;;;2.30;;
69305;SDS011;56427;51.580;4.656;2022-10-22T16:15:49;6.18;;;1.88;;
69305;SDS011;56427;51.580;4.656;2022-10-22T16:18:15;10.52;;;2.30;;
69305;SDS011;56427;51.580;4.656;2022-10-22T16:20:40;9.73;;;2.30;;
69305;SDS011;56427;51.580;4.656;2022-10-22T16:23:06;10.90;;;2.50;;
69305;SDS011;56427;51.580;4.656;2022-10-22T16:25:40;9.33;;;2.43;;
69305;SDS011;56427;51.580;4.656;2022-10-22T16:28:07;10.80;;;2.50;;
69305;SDS011;56427;51.580;4.656;2022-10-22T16:30:33;8.63;;;2.53;;
69305;SDS011;56427;51.580;4.656;2022-10-22T16:33:00;8.88;;;3.03;;
69305;SDS011;56427;51.580;4.656;2022-10-22T16:35:26;12.88;;;3.10;;
69305;SDS011;56427;51.580;4.656;2022-10-22T16:37:52;13.60;;;3.00;;
69305;SDS011;56427;51.580;4.656;2022-10-22T16:40:17;10.40;;;3.20;;
69305;SDS011;56427;51.580;4.656;2022-10-22T16:42:42;13.37;;;3.10;;
69305;SDS011;56427;51.580;4.656;2022-10-22T16:45:08;10.23;;;2.60;;